Time;durP1;ratioP1;P1;durP2;ratioP2;P2;SDS_P1;SDS_P2;PMS_P1;PMS_P2;Temp;Humidity;BMP_temperature;BMP_pressure;BME280_temperature;BME280_humidity;BME280_pressure;Samples;Min_cycle;Max_cycle;Signal;HPM_P1;HPM_P2
2023/12/01 00:00:49;;;;;;;20.10;13.80;;;;;;;-1.33;100.00;99527.37;88404;280;137300;-76
2023/12/01 00:02:51;;;;;;;23.90;15.10;;;;;;;-1.30;100.00;99511.80;88412;283;25248;-77
2023/12/01 00:04:53;;;;;;;20.70;13.30;;;;;;;-1.27;100.00;99510.30;88641;282;136855;-74
2023/12/01 00:06:55;;;;;;;23.40;16.00;;;;;;;-1.28;100.00;99500.74;88720;281;23994;-77
2023/12/01 00:08:58;;;;;;;21.60;14.90;;;;;;;-1.31;100.00;99497.54;88677;281;136461;-76
2023/12/01 00:11:00;;;;;;;18.80;13.50;;;;;;;-1.39;100.00;99499.73;88515;283;24019;-76
2023/12/01 00:13:02;;;;;;;21.80;14.50;;;;;;;-1.42;100.00;99490.13;88380;274;137800;-74
2023/12/01 00:15:06;;;;;;;20.80;14.10;;;;;;;-1.39;100.00;99489.15;88458;282;24061;-77
2023/12/01 00:17:09;;;;;;;22.00;14.10;;;;;;;-1.37;100.00;99477.84;88372;282;138666;-78
2023/12/01 00:19:11;;;;;;;21.50;13.70;;;;;;;-1.32;100.00;99474.25;88537;282;25261;-76
2023/12/01 00:21:13;;;;;;;26.00;16.50;;;;;;;-1.31;100.00;99469.27;88547;282;137123;-75
2023/12/01 00:23:15;;;;;;;21.70;15.00;;;;;;;-1.34;100.00;99474.94;88531;275;22545;-77
2023/12/01 00:25:17;;;;;;;25.50;15.60;;;;;;;-1.37;100.00;99492.78;88419;275;138078;-76
2023/12/01 00:27:19;;;;;;;21.90;14.90;;;;;;;-1.39;100.00;99499.54;88454;275;22542;-76
2023/12/01 00:29:21;;;;;;;21.40;14.40;;;;;;;-1.32;100.00;99499.90;88408;282;137192;-75
2023/12/01 00:31:25;;;;;;;24.90;16.40;;;;;;;-1.24;100.00;99497.97;88516;275;22599;-74
2023/12/01 00:33:26;;;;;;;24.80;16.30;;;;;;;-1.19;100.00;99493.91;88483;278;137325;-72
2023/12/01 00:35:29;;;;;;;24.90;15.50;;;;;;;-1.16;100.00;99483.16;88514;282;24073;-72
2023/12/01 00:37:31;;;;;;;24.80;16.10;;;;;;;-1.18;100.00;99475.49;88383;281;137884;-73
2023/12/01 00:39:34;;;;;;;25.40;16.60;;;;;;;-1.24;100.00;99474.95;88450;281;22780;-73
2023/12/01 00:41:36;;;;;;;25.20;16.70;;;;;;;-1.38;100.00;99449.52;88437;282;136282;-73
2023/12/01 00:43:38;;;;;;;22.40;15.00;;;;;;;-1.28;100.00;99459.11;88469;278;25105;-74
2023/12/01 00:45:40;;;;;;;21.60;16.00;;;;;;;-1.19;100.00;99448.55;88355;275;137866;-74
2023/12/01 00:47:44;;;;;;;20.50;15.00;;;;;;;-1.13;100.00;99434.27;88485;274;25118;-75
2023/12/01 00:49:46;;;;;;;19.50;14.00;;;;;;;-1.14;100.00;99438.52;88383;282;136413;-73
2023/12/01 00:51:49;;;;;;;26.30;16.10;;;;;;;-1.27;100.00;99420.52;88684;282;24027;-73
2023/12/01 00:53:51;;;;;;;27.60;14.70;;;;;;;-1.30;100.00;99421.48;88594;281;136439;-74
2023/12/01 00:55:53;;;;;;;25.20;15.30;;;;;;;-1.36;100.00;99421.08;88521;283;22619;-73
2023/12/01 00:57:55;;;;;;;22.20;15.50;;;;;;;-1.27;100.00;99418.60;88523;281;136854;-76
2023/12/01 00:59:58;;;;;;;28.70;15.30;;;;;;;-1.17;100.00;99426.64;88671;274;23003;-72
2023/12/01 01:02:00;;;;;;;30.90;17.30;;;;;;;-1.08;100.00;99424.39;88456;282;136402;-74
2023/12/01 01:04:02;;;;;;;33.60;19.80;;;;;;;-1.03;100.00;99414.16;88580;278;27106;-74
2023/12/01 01:06:08;;;;;;;30.80;17.90;;;;;;;-1.04;100.00;99414.13;88740;274;22636;-76
2023/12/01 01:10:28;;;;;;;32.40;18.60;;;;;;;-1.12;100.00;99402.77;86858;306;604134;-75
2023/12/01 01:12:45;;;;;;;24.00;15.10;;;;;;;-1.12;100.00;99400.39;87890;295;135678;-76
2023/12/01 01:14:49;;;;;;;28.40;15.00;;;;;;;-1.14;100.00;99395.23;87828;290;24072;-75
2023/12/01 01:16:51;;;;;;;24.90;15.20;;;;;;;-1.02;100.00;99411.14;88068;285;137814;-75
2023/12/01 01:18:53;;;;;;;22.90;13.10;;;;;;;-1.04;100.00;99381.49;88221;289;24069;-75
2023/12/01 01:20:55;;;;;;;25.50;16.90;;;;;;;-1.03;100.00;99371.29;88082;293;136103;-75
2023/12/01 01:22:58;;;;;;;23.00;16.00;;;;;;;-1.00;100.00;99382.16;88106;292;22562;-73
2023/12/01 01:25:00;;;;;;;32.00;18.30;;;;;;;-1.03;100.00;99380.67;87846;291;721771;-76
2023/12/01 01:27:03;;;;;;;35.40;18.80;;;;;;;-1.08;100.00;99382.87;88070;293;22556;-74
2023/12/01 01:29:06;;;;;;;34.10;17.90;;;;;;;-1.10;100.00;99386.56;88053;289;135875;-75
2023/12/01 01:31:08;;;;;;;24.80;15.10;;;;;;;-1.17;100.00;99353.92;88140;289;24060;-75
2023/12/01 01:33:10;;;;;;;23.80;14.60;;;;;;;-1.07;100.00;99352.84;88117;287;136645;-75
2023/12/01 01:35:15;;;;;;;20.10;14.20;;;;;;;-1.06;100.00;99357.64;88311;290;25268;-77
2023/12/01 01:37:18;;;;;;;19.20;12.70;;;;;;;-1.10;100.00;99367.92;88252;282;136626;-74
2023/12/01 01:39:20;;;;;;;20.10;14.70;;;;;;;-1.15;100.00;99358.58;88205;284;25131;-76
2023/12/01 01:41:22;;;;;;;17.40;12.60;;;;;;;-1.15;100.00;99343.64;88251;281;136572;-74
2023/12/01 01:43:26;;;;;;;20.00;13.60;;;;;;;-1.17;100.00;99339.56;88727;289;23728;-74
2023/12/01 01:45:28;;;;;;;22.30;14.20;;;;;;;-1.25;100.00;99332.48;88577;289;136127;-74
2023/12/01 01:47:32;;;;;;;20.70;14.20;;;;;;;-1.32;100.00;99332.08;88372;287;22533;-75
2023/12/01 01:49:35;;;;;;;19.10;12.90;;;;;;;-1.31;100.00;99337.01;88765;286;136860;-74
2023/12/01 01:51:39;;;;;;;19.40;13.40;;;;;;;-1.27;100.00;99324.98;88901;282;22525;-75
2023/12/01 01:53:41;;;;;;;19.30;13.00;;;;;;;-1.27;100.00;99322.90;88702;284;136123;-75
2023/12/01 01:55:45;;;;;;;24.40;15.10;;;;;;;-1.27;100.00;99325.89;88938;279;22480;-75
2023/12/01 01:57:49;;;;;;;21.30;14.90;;;;;;;-1.29;100.00;99314.14;89077;285;136570;-77
2023/12/01 01:59:55;;;;;;;20.90;13.70;;;;;;;-1.25;100.00;99303.19;88930;285;22553;-76
2023/12/01 02:01:58;;;;;;;23.50;15.40;;;;;;;-1.25;100.00;99294.66;88456;279;136151;-77
2023/12/01 02:04:01;;;;;;;26.90;14.70;;;;;;;-1.32;100.00;99277.12;88360;287;22583;-75
2023/12/01 02:06:06;;;;;;;25.80;14.70;;;;;;;-1.45;100.00;99258.61;88445;285;24057;-76
2023/12/01 02:08:24;;;;;;;26.40;15.40;;;;;;;-1.31;100.00;99282.45;88320;285;136946;-73
2023/12/01 02:10:26;;;;;;;22.80;13.60;;;;;;;-1.25;100.00;99274.02;88450;279;22544;-78
2023/12/01 02:12:29;;;;;;;28.60;13.20;;;;;;;-1.27;100.00;99268.11;88160;280;136821;-75
2023/12/01 02:14:31;;;;;;;26.80;14.80;;;;;;;-1.21;100.00;99258.90;88270;287;25440;-74
2023/12/01 02:16:33;;;;;;;24.30;14.90;;;;;;;-1.19;100.00;99258.92;88198;287;139012;-77
2023/12/01 02:18:35;;;;;;;21.20;14.70;;;;;;;-1.19;100.00;99255.37;88286;288;22533;-75
2023/12/01 02:20:37;;;;;;;27.00;16.00;;;;;;;-1.25;100.00;99249.34;88332;285;135858;-76
2023/12/01 02:22:39;;;;;;;27.80;15.40;;;;;;;-1.25;100.00;99249.66;88486;285;22536;-76
2023/12/01 02:24:41;;;;;;;24.30;15.40;;;;;;;-1.21;100.00;99241.09;88173;286;137021;-75
2023/12/01 02:26:43;;;;;;;34.30;17.10;;;;;;;-1.16;100.00;99225.70;88499;285;22602;-76
2023/12/01 02:28:46;;;;;;;25.20;15.40;;;;;;;-1.12;100.00;99223.02;88132;287;137493;-74
2023/12/01 02:30:50;;;;;;;23.20;16.40;;;;;;;-1.07;100.00;99224.46;88270;278;23718;-75
2023/12/01 02:32:52;;;;;;;23.00;13.80;;;;;;;-1.06;100.00;99221.10;88155;286;136304;-74
2023/12/01 02:34:55;;;;;;;23.00;15.00;;;;;;;-1.11;100.00;99218.41;88216;285;24147;-72
2023/12/01 02:36:58;;;;;;;27.00;15.80;;;;;;;-1.11;100.00;99210.35;88030;279;136479;-72
2023/12/01 02:39:02;;;;;;;31.30;14.70;;;;;;;-1.02;100.00;99204.33;88237;279;24024;-71
2023/12/01 02:41:04;;;;;;;28.70;18.60;;;;;;;-0.95;100.00;99201.73;88398;281;137789;-72
2023/12/01 02:43:17;;;;;;;31.50;17.40;;;;;;;-0.94;100.00;99194.76;88341;284;23552;-72
2023/12/01 02:45:21;;;;;;;31.60;18.60;;;;;;;-1.05;100.00;99200.23;88356;282;135741;-75
2023/12/01 02:47:23;;;;;;;27.50;15.10;;;;;;;-1.04;100.00;99201.71;88411;279;22528;-74
2023/12/01 02:49:25;;;;;;;32.70;17.60;;;;;;;-0.96;100.00;99207.98;88183;285;138387;-74
2023/12/01 02:51:27;;;;;;;23.00;16.80;;;;;;;-0.90;100.00;99209.71;88331;285;25163;-73
2023/12/01 02:53:28;;;;;;;34.50;17.30;;;;;;;-0.90;100.00;99202.70;88126;286;136009;-73
2023/12/01 02:55:31;;;;;;;24.30;17.10;;;;;;;-0.95;100.00;99190.83;88393;285;25125;-73
2023/12/01 02:57:33;;;;;;;30.70;18.20;;;;;;;-0.99;100.00;99184.69;88214;282;136159;-72
2023/12/01 02:59:35;;;;;;;24.50;17.00;;;;;;;-0.99;100.00;99169.65;88310;285;22530;-73
2023/12/01 03:01:37;;;;;;;30.60;18.10;;;;;;;-0.92;100.00;99169.63;88359;278;136601;-73
2023/12/01 03:03:40;;;;;;;23.40;15.10;;;;;;;-0.86;100.00;99163.41;88621;278;24028;-71
2023/12/01 03:05:44;;;;;;;24.20;14.60;;;;;;;-0.85;100.00;99171.37;88498;279;137777;-73
2023/12/01 03:07:48;;;;;;;26.20;16.20;;;;;;;-0.97;100.00;99161.84;88363;284;22541;-72
2023/12/01 03:09:50;;;;;;;25.90;15.50;;;;;;;-1.07;100.00;99155.80;88469;282;136123;-75
2023/12/01 03:11:52;;;;;;;20.30;13.50;;;;;;;-1.10;100.00;99163.09;88403;280;22554;-72
2023/12/01 03:13:54;;;;;;;23.40;14.90;;;;;;;-1.08;100.00;99152.78;88310;275;136638;-72
2023/12/01 03:15:57;;;;;;;24.30;15.90;;;;;;;-1.07;100.00;99154.05;88359;280;22591;-71
2023/12/01 03:17:59;;;;;;;17.10;12.60;;;;;;;-1.05;100.00;99157.02;88435;282;136501;-72
2023/12/01 03:20:10;;;;;;;20.00;15.20;;;;;;;-1.05;100.00;99152.27;88487;280;24017;-72
2023/12/01 03:22:13;;;;;;;20.40;14.10;;;;;;;-1.09;100.00;99147.64;88591;275;22543;-73
2023/12/01 03:24:15;;;;;;;22.00;14.20;;;;;;;-1.13;100.00;99138.23;88308;276;136172;-72
2023/12/01 03:26:19;;;;;;;21.50;13.80;;;;;;;-1.19;100.00;99131.78;88480;282;22537;-73
2023/12/01 03:28:22;;;;;;;19.60;13.70;;;;;;;-1.16;100.00;99134.67;89086;277;136730;-72
2023/12/01 03:30:24;;;;;;;19.00;13.10;;;;;;;-1.12;100.00;99123.15;88422;280;28269;-72
2023/12/01 03:32:26;;;;;;;21.40;14.40;;;;;;;-1.09;100.00;99116.25;88360;277;136992;-72
2023/12/01 03:34:29;;;;;;;19.40;13.80;;;;;;;-1.07;100.00;99108.57;88285;280;24173;-72
2023/12/01 03:36:31;;;;;;;20.50;12.80;;;;;;;-1.07;100.00;99112.00;89134;283;137765;-70
2023/12/01 03:38:33;;;;;;;21.90;14.70;;;;;;;-1.12;100.00;99103.80;88398;283;25152;-75
2023/12/01 03:40:36;;;;;;;21.70;14.10;;;;;;;-1.19;100.00;99107.75;88412;276;135991;-74
2023/12/01 03:42:48;;;;;;;17.60;12.40;;;;;;;-1.16;100.00;99103.29;88544;282;22712;-72
2023/12/01 03:44:50;;;;;;;20.10;13.60;;;;;;;-1.13;100.00;99099.21;88452;282;136738;-74
2023/12/01 03:46:52;;;;;;;18.30;11.90;;;;;;;-1.16;100.00;99108.11;88374;279;22549;-73
2023/12/01 03:48:54;;;;;;;18.50;13.30;;;;;;;-1.14;100.00;99092.30;88337;276;136481;-73
2023/12/01 03:50:56;;;;;;;22.60;13.30;;;;;;;-1.11;100.00;99058.04;88551;282;25212;-73
2023/12/01 03:52:58;;;;;;;22.60;15.00;;;;;;;-1.09;100.00;99041.23;88330;282;136380;-72
2023/12/01 03:55:01;;;;;;;21.50;13.70;;;;;;;-1.08;100.00;99042.22;88518;282;24388;-72
2023/12/01 03:57:04;;;;;;;21.80;14.70;;;;;;;-1.10;100.00;99051.84;88399;274;136499;-72
2023/12/01 03:59:09;;;;;;;21.90;15.00;;;;;;;-1.10;100.00;99061.77;88621;275;22999;-72
2023/12/01 04:01:12;;;;;;;20.40;14.30;;;;;;;-1.02;100.00;99053.27;88353;275;136760;-73
2023/12/01 04:03:14;;;;;;;24.00;14.10;;;;;;;-0.95;100.00;99044.66;88497;281;24059;-73
2023/12/01 04:05:18;;;;;;;21.60;15.30;;;;;;;-0.91;100.00;99043.21;88383;279;137742;-71
2023/12/01 04:07:24;;;;;;;24.70;17.60;;;;;;;-0.93;100.00;99054.05;88458;275;25255;-71
2023/12/01 04:09:26;;;;;;;24.70;16.30;;;;;;;-0.97;100.00;99062.85;88349;279;136181;-72
2023/12/01 04:11:28;;;;;;;23.10;14.90;;;;;;;-1.00;100.00;99053.61;88280;284;22531;-70
2023/12/01 04:13:30;;;;;;;24.30;16.90;;;;;;;-0.94;100.00;99056.21;88302;276;136748;-73
2023/12/01 04:15:34;;;;;;;24.90;16.50;;;;;;;-0.83;100.00;99055.39;88382;282;23718;-71
2023/12/01 04:17:37;;;;;;;23.70;16.90;;;;;;;-0.78;100.00;99026.27;88418;283;140755;-72
2023/12/01 04:19:39;;;;;;;21.70;15.80;;;;;;;-0.74;100.00;99018.05;88359;284;22606;-73
2023/12/01 04:21:41;;;;;;;20.60;14.70;;;;;;;-0.72;100.00;99020.31;88328;282;136229;-73
2023/12/01 04:23:44;;;;;;;24.60;16.50;;;;;;;-0.76;100.00;99025.96;88328;282;22544;-73
2023/12/01 04:25:47;;;;;;;26.20;18.70;;;;;;;-0.81;100.00;99035.95;88405;280;136165;-74
2023/12/01 04:27:52;;;;;;;25.50;16.60;;;;;;;-0.76;100.00;99041.60;88466;282;22537;-73
2023/12/01 04:29:54;;;;;;;21.80;16.40;;;;;;;-0.68;100.00;99032.46;88403;280;136732;-72
2023/12/01 04:31:58;;;;;;;26.50;18.00;;;;;;;-0.63;100.00;99008.73;88273;280;22507;-72
2023/12/01 04:34:03;;;;;;;24.60;18.00;;;;;;;-0.64;100.00;98988.14;88379;275;22587;-71
2023/12/01 04:36:06;;;;;;;24.90;16.30;;;;;;;-0.69;100.00;98992.45;88301;281;136515;-72
2023/12/01 04:38:09;;;;;;;29.60;18.30;;;;;;;-0.74;100.00;99011.73;88427;284;22543;-72
2023/12/01 04:40:17;;;;;;;25.20;16.60;;;;;;;-0.69;100.00;99022.98;88301;280;137296;-70
2023/12/01 04:42:19;;;;;;;27.70;18.90;;;;;;;-0.62;100.00;99022.98;88516;282;24053;-72
2023/12/01 04:44:22;;;;;;;26.80;19.00;;;;;;;-0.57;100.00;99017.84;88250;276;136975;-72
2023/12/01 04:46:24;;;;;;;26.60;17.50;;;;;;;-0.62;100.00;99011.48;88573;282;22522;-72
2023/12/01 04:48:26;;;;;;;25.70;17.60;;;;;;;-0.52;100.00;99020.61;88355;283;135886;-74
2023/12/01 04:50:30;;;;;;;27.30;18.90;;;;;;;-0.55;100.00;98996.30;88554;282;24054;-74
2023/12/01 04:52:32;;;;;;;26.90;18.40;;;;;;;-0.54;100.00;98994.81;88399;275;136596;-72
2023/12/01 04:54:36;;;;;;;26.20;15.90;;;;;;;-0.45;100.00;98990.66;88472;275;22534;-75
2023/12/01 04:56:38;;;;;;;25.20;16.50;;;;;;;-0.37;100.00;98987.92;88457;282;137300;-74
2023/12/01 04:58:41;;;;;;;25.70;17.90;;;;;;;-0.31;100.00;98986.27;88470;282;22565;-74
2023/12/01 05:00:43;;;;;;;24.80;17.20;;;;;;;-0.29;100.00;98998.20;88331;282;136314;-73
2023/12/01 05:02:50;;;;;;;22.10;16.80;;;;;;;-0.30;100.00;99007.66;88316;275;22899;-75
2023/12/01 05:04:53;;;;;;;26.60;17.70;;;;;;;-0.27;100.00;99011.20;88074;275;137467;-75
2023/12/01 05:06:55;;;;;;;21.10;14.90;;;;;;;-0.22;100.00;99017.73;88299;275;22827;-73
2023/12/01 05:08:58;;;;;;;25.30;16.10;;;;;;;-0.13;100.00;99026.09;88458;282;137069;-75
2023/12/01 05:11:04;;;;;;;23.10;14.20;;;;;;;-0.04;100.00;99015.41;88278;279;22533;-76
2023/12/01 05:13:07;;;;;;;21.90;13.90;;;;;;;-0.01;100.00;99003.36;88325;275;137391;-70
2023/12/01 05:15:16;;;;;;;18.30;13.00;;;;;;;-0.06;100.00;98985.80;88441;274;22536;-75
2023/12/01 05:17:18;;;;;;;20.00;14.20;;;;;;;-0.03;100.00;98995.21;88297;275;138202;-73
2023/12/01 05:19:20;;;;;;;22.60;14.00;;;;;;;-0.08;100.00;99012.89;88323;279;25191;-72
2023/12/01 05:21:22;;;;;;;19.00;14.20;;;;;;;-0.11;100.00;99020.99;88169;282;136587;-72
2023/12/01 05:23:24;;;;;;;21.90;14.80;;;;;;;-0.13;100.00;99005.29;88316;275;25194;-74
2023/12/01 05:25:32;;;;;;;18.10;13.30;;;;;;;-0.13;100.00;98985.23;88290;278;136749;-72
2023/12/01 05:27:35;;;;;;;20.70;13.20;;;;;;;0.06;100.00;98999.04;88364;275;22611;-72
2023/12/01 05:29:38;;;;;;;17.70;13.50;;;;;;;0.12;100.00;99007.30;88202;277;136816;-73
2023/12/01 05:31:40;;;;;;;21.40;13.20;;;;;;;0.18;100.00;99009.02;88236;276;24902;-72
2023/12/01 05:33:46;;;;;;;19.90;12.50;;;;;;;0.19;100.00;99000.35;88184;276;136098;-69
2023/12/01 05:35:59;;;;;;;22.20;14.70;;;;;;;0.16;100.00;98982.60;88180;280;21597;-69
2023/12/01 05:38:04;;;;;;;25.20;15.10;;;;;;;0.14;100.00;98975.02;88440;278;136261;-69
2023/12/01 05:40:10;;;;;;;21.90;13.50;;;;;;;0.09;100.00;98979.38;88377;275;136701;-69
2023/12/01 05:42:12;;;;;;;26.10;14.90;;;;;;;0.09;100.00;98999.95;88241;280;22559;-69
2023/12/01 05:44:14;;;;;;;18.40;13.70;;;;;;;0.13;100.00;99014.39;88207;282;137379;-68
2023/12/01 05:46:17;;;;;;;19.10;13.70;;;;;;;0.17;100.00;99021.71;88224;279;22779;-71
2023/12/01 05:48:20;;;;;;;23.20;14.90;;;;;;;0.21;100.00;99018.47;88589;274;136873;-69
2023/12/01 05:50:25;;;;;;;19.90;13.60;;;;;;;0.27;100.00;99014.30;88223;280;22958;-73
2023/12/01 05:52:27;;;;;;;20.80;15.40;;;;;;;0.21;100.00;99017.25;88335;278;136321;-71
2023/12/01 05:54:29;;;;;;;22.20;14.50;;;;;;;0.24;100.00;99021.23;88312;275;22550;-68
2023/12/01 05:56:31;;;;;;;23.20;14.70;;;;;;;0.19;100.00;98994.80;88221;276;136591;-70
2023/12/01 05:58:32;;;;;;;25.90;16.30;;;;;;;0.16;100.00;98969.95;88240;275;22780;-70
2023/12/01 06:00:35;;;;;;;27.90;17.10;;;;;;;0.21;100.00;98965.73;88112;276;137594;-68
2023/12/01 06:02:37;;;;;;;23.10;17.60;;;;;;;0.24;100.00;98975.20;88519;274;22531;-68
2023/12/01 06:04:39;;;;;;;19.80;15.80;;;;;;;0.19;100.00;98967.91;88222;274;137593;-67
2023/12/01 06:06:41;;;;;;;25.80;17.10;;;;;;;0.26;100.00;98976.27;88276;275;24052;-69
2023/12/01 06:08:43;;;;;;;31.50;16.00;;;;;;;0.21;100.00;98976.63;88194;275;137271;-68
2023/12/01 06:10:45;;;;;;;25.50;17.50;;;;;;;0.16;100.00;98968.69;88252;275;22534;-69
2023/12/01 06:12:48;;;;;;;25.30;16.10;;;;;;;0.12;100.00;98973.65;88244;275;137913;-68
2023/12/01 06:14:50;;;;;;;22.50;15.90;;;;;;;0.17;100.00;98988.89;88412;281;24195;-66
2023/12/01 06:16:52;;;;;;;24.80;16.70;;;;;;;0.25;100.00;98991.16;88185;281;136926;-68
2023/12/01 06:18:55;;;;;;;25.90;16.90;;;;;;;0.32;100.00;98969.70;88460;284;24026;-68
2023/12/01 06:20:58;;;;;;;26.30;15.90;;;;;;;0.35;100.00;98962.35;88655;282;136793;-68
2023/12/01 06:23:05;;;;;;;23.20;15.80;;;;;;;0.36;100.00;98965.46;88131;284;22957;-69
2023/12/01 06:25:08;;;;;;;25.60;16.30;;;;;;;0.30;100.00;98949.95;88648;282;136140;-70
2023/12/01 06:27:11;;;;;;;28.10;18.70;;;;;;;0.27;100.00;98964.95;88230;275;22545;-68
2023/12/01 06:29:14;;;;;;;27.00;17.70;;;;;;;0.25;100.00;98984.36;88273;281;136311;-67
2023/12/01 06:31:17;;;;;;;30.50;17.00;;;;;;;0.34;100.00;98983.12;88625;282;22527;-71
2023/12/01 06:33:19;;;;;;;25.20;16.50;;;;;;;0.48;100.00;98977.48;88751;275;138015;-68
2023/12/01 06:35:21;;;;;;;24.50;17.00;;;;;;;0.57;100.00;98966.78;88331;275;22773;-67
2023/12/01 06:37:23;;;;;;;21.00;15.70;;;;;;;0.64;100.00;98960.50;88266;276;136716;-70
2023/12/01 06:39:27;;;;;;;28.40;18.70;;;;;;;0.64;100.00;98952.48;88359;282;24167;-68
2023/12/01 06:41:29;;;;;;;29.10;19.00;;;;;;;0.61;100.00;98954.33;88373;274;137764;-68
2023/12/01 06:43:32;;;;;;;29.20;18.40;;;;;;;0.57;100.00;98960.15;88220;277;23877;-70
2023/12/01 06:45:36;;;;;;;25.60;17.40;;;;;;;0.54;100.00;98957.30;88190;280;136334;-68
2023/12/01 06:47:40;;;;;;;27.40;17.20;;;;;;;0.60;100.00;98949.88;88278;282;22958;-80
2023/12/01 06:49:42;;;;;;;;;;;;;;;0.70;100.00;98956.05;88516;279;136748;-79
2023/12/01 06:51:44;;;;;;;27.90;18.10;;;;;;;0.78;100.00;98974.63;88328;279;23950;-78
2023/12/01 06:53:46;;;;;;;27.60;19.10;;;;;;;0.84;100.00;98970.85;88199;282;137491;-77
2023/12/01 06:55:48;;;;;;;22.00;17.50;;;;;;;0.83;100.00;98954.65;88293;282;24842;-80
2023/12/01 06:57:50;;;;;;;27.60;18.40;;;;;;;0.82;100.00;98945.33;88159;276;136039;-77
2023/12/01 06:59:55;;;;;;;27.60;19.30;;;;;;;0.81;100.00;98951.73;88325;283;22534;-79
2023/12/01 07:01:57;;;;;;;27.00;19.20;;;;;;;0.63;100.00;98938.25;88282;282;135996;-81
2023/12/01 07:04:07;;;;;;;32.00;20.20;;;;;;;0.81;100.00;98958.41;88312;282;25227;-78
2023/12/01 07:06:10;;;;;;;34.60;19.80;;;;;;;0.89;100.00;98929.73;88580;281;24055;-72
2023/12/01 07:08:12;;;;;;;27.90;20.50;;;;;;;0.96;100.00;98927.95;88336;274;137287;-71
2023/12/01 07:10:16;;;;;;;27.10;18.40;;;;;;;0.97;100.00;98937.98;88517;282;24414;-75
2023/12/01 07:12:18;;;;;;;27.50;18.70;;;;;;;1.02;100.00;98965.65;88121;280;136430;-74
2023/12/01 07:14:23;;;;;;;28.10;21.30;;;;;;;0.94;100.00;98952.80;88362;282;24190;-76
2023/12/01 07:16:26;;;;;;;;;;;;;;;0.94;100.00;98942.31;88320;277;136930;-74
2023/12/01 07:18:29;;;;;;;30.90;20.50;;;;;;;0.92;100.00;98942.54;88896;279;22523;-75
2023/12/01 07:20:33;;;;;;;32.40;21.40;;;;;;;0.90;100.00;98961.42;88298;282;136389;-82
2023/12/01 07:22:35;;;;;;;32.70;21.10;;;;;;;0.92;100.00;98976.70;88419;275;25083;-74
2023/12/01 07:24:38;;;;;;;30.20;20.50;;;;;;;1.01;100.00;98970.46;88300;282;137144;-78
2023/12/01 07:26:40;;;;;;;35.60;24.70;;;;;;;1.08;100.00;98960.61;88747;282;22541;-78
2023/12/01 07:28:42;;;;;;;35.10;22.00;;;;;;;1.12;100.00;98966.39;88280;282;137018;-77
2023/12/01 07:30:45;;;;;;;31.80;22.20;;;;;;;1.15;100.00;98952.73;88399;279;22642;-76
2023/12/01 07:32:49;;;;;;;33.90;21.90;;;;;;;1.14;100.00;98943.56;88237;282;137168;-76
2023/12/01 07:34:51;;;;;;;32.50;24.00;;;;;;;1.11;100.00;98939.38;88507;275;22523;-74
2023/12/01 07:36:55;;;;;;;47.70;31.60;;;;;;;1.10;100.00;98941.52;88258;278;136439;-79
2023/12/01 07:38:57;;;;;;;43.30;30.80;;;;;;;1.09;100.00;98935.17;88514;274;25155;-78
2023/12/01 07:40:59;;;;;;;40.30;26.00;;;;;;;1.13;100.00;98932.48;88362;282;136845;-82
2023/12/01 07:43:02;;;;;;;37.70;26.10;;;;;;;1.18;100.00;98921.97;88380;279;26208;-77
2023/12/01 07:45:07;;;;;;;43.50;29.40;;;;;;;1.20;100.00;98905.15;90908;282;137637;-75
2023/12/01 07:47:12;;;;;;;42.30;29.00;;;;;;;1.20;100.00;98903.94;88804;280;22550;-77
2023/12/01 07:49:15;;;;;;;40.90;27.70;;;;;;;1.16;100.00;98904.66;89025;279;136347;-76
2023/12/01 07:51:17;;;;;;;34.20;24.40;;;;;;;1.13;100.00;98920.44;89274;282;22556;-82
2023/12/01 07:53:20;;;;;;;37.70;26.30;;;;;;;1.12;100.00;98917.35;88682;275;137439;-79
2023/12/01 07:55:22;;;;;;;41.30;29.20;;;;;;;1.15;100.00;98919.53;88767;274;22526;-76
2023/12/01 07:57:26;;;;;;;43.00;29.30;;;;;;;1.10;100.00;98925.28;89084;274;136756;-81
2023/12/01 07:59:28;;;;;;;39.80;27.90;;;;;;;1.05;100.00;98923.01;88502;275;22568;-84
2023/12/01 08:01:30;;;;;;;41.70;29.90;;;;;;;1.01;100.00;98917.55;88783;281;136725;-84
2023/12/01 08:03:32;;;;;;;37.70;28.60;;;;;;;1.00;100.00;98920.58;88877;275;25035;-76
2023/12/01 08:05:39;;;;;;;38.60;27.50;;;;;;;1.01;100.00;98926.61;88729;282;135850;-76
2023/12/01 08:07:45;;;;;;;43.60;29.30;;;;;;;1.01;100.00;98931.27;88651;284;22537;-73
2023/12/01 08:09:48;;;;;;;35.30;26.00;;;;;;;1.05;100.00;98931.80;88158;279;136812;-73
2023/12/01 08:11:52;;;;;;;45.90;32.20;;;;;;;1.15;100.00;98952.77;88445;278;24054;-72
2023/12/01 08:13:54;;;;;;;45.40;30.60;;;;;;;1.24;100.00;98957.45;88235;282;136789;-75
2023/12/01 08:15:56;;;;;;;45.60;32.90;;;;;;;1.32;100.00;98961.08;88729;278;24018;-74
2023/12/01 08:17:59;;;;;;;45.10;32.90;;;;;;;1.41;100.00;98957.86;88190;276;136963;-74
2023/12/01 08:20:08;;;;;;;39.10;30.00;;;;;;;1.48;100.00;98958.95;88569;274;25226;-73
2023/12/01 08:22:10;;;;;;;36.30;26.50;;;;;;;1.51;100.00;98950.71;88325;282;22553;-71
2023/12/01 08:24:12;;;;;;;34.50;26.20;;;;;;;1.51;100.00;98945.67;88528;278;137236;-70
2023/12/01 08:26:15;;;;;;;36.80;26.30;;;;;;;1.48;100.00;98961.35;88447;283;24052;-72
2023/12/01 08:28:18;;;;;;;37.70;26.80;;;;;;;1.45;100.00;98968.17;88445;278;137042;-72
2023/12/01 08:30:20;;;;;;;33.90;24.30;;;;;;;1.41;100.00;98954.02;88457;282;22553;-73
2023/12/01 08:32:27;;;;;;;35.60;25.00;;;;;;;1.40;100.00;98945.89;88332;282;137414;-72
2023/12/01 08:34:29;;;;;;;35.00;26.10;;;;;;;1.38;100.00;98942.84;88362;275;25976;-75
2023/12/01 08:36:34;;;;;;;42.00;29.10;;;;;;;1.34;100.00;98933.08;88678;283;136925;-73
2023/12/01 08:38:36;;;;;;;40.50;27.00;;;;;;;1.31;100.00;98932.98;88661;279;25147;-71
2023/12/01 08:40:38;;;;;;;33.10;24.70;;;;;;;1.33;100.00;98940.67;88985;282;136591;-73
2023/12/01 08:42:45;;;;;;;35.00;24.90;;;;;;;1.31;100.00;98925.57;89642;279;24058;-75
2023/12/01 08:44:47;;;;;;;30.10;20.70;;;;;;;1.38;100.00;98922.52;89480;282;137320;-73
2023/12/01 08:46:49;;;;;;;34.80;22.50;;;;;;;1.48;100.00;98934.60;88865;277;25124;-72
2023/12/01 08:48:51;;;;;;;30.80;23.30;;;;;;;1.46;100.00;98940.01;88367;280;136901;-73
2023/12/01 08:50:53;;;;;;;30.80;22.20;;;;;;;1.50;100.00;98937.52;88555;274;23949;-73
2023/12/01 08:52:55;;;;;;;35.40;25.20;;;;;;;1.56;100.00;98930.74;88510;275;137015;-74
2023/12/01 08:54:59;;;;;;;32.40;23.20;;;;;;;1.63;100.00;98929.44;88668;280;24100;-72
2023/12/01 08:57:01;;;;;;;38.20;25.60;;;;;;;1.69;100.00;98919.31;88624;276;136970;-74
2023/12/01 08:59:04;;;;;;;37.60;26.80;;;;;;;1.72;100.00;98917.02;88663;282;23924;-72
2023/12/01 09:01:06;;;;;;;36.60;24.80;;;;;;;1.79;100.00;98927.71;88240;279;137249;-75
2023/12/01 09:03:09;;;;;;;37.20;25.60;;;;;;;1.85;100.00;98939.86;89082;281;22596;-75
2023/12/01 09:05:11;;;;;;;38.30;27.60;;;;;;;1.88;100.00;98939.41;88315;274;137363;-76
2023/12/01 09:07:14;;;;;;;34.10;24.80;;;;;;;1.89;100.00;98934.82;88322;278;22612;-71
2023/12/01 09:09:17;;;;;;;35.20;26.20;;;;;;;1.87;100.00;98940.19;88188;280;136920;-71
2023/12/01 09:11:20;;;;;;;37.20;27.70;;;;;;;1.83;100.00;98943.31;88475;276;22929;-73
2023/12/01 09:13:22;;;;;;;38.30;28.90;;;;;;;1.79;100.00;98939.50;88193;279;137304;-75
2023/12/01 09:15:24;;;;;;;37.30;28.00;;;;;;;1.79;100.00;98930.93;88301;276;25188;-72
2023/12/01 09:17:26;;;;;;;38.90;26.30;;;;;;;1.82;100.00;98938.84;88353;276;138343;-69
2023/12/01 09:19:29;;;;;;;34.80;27.00;;;;;;;1.83;100.00;98938.55;88564;275;25140;-71
2023/12/01 09:21:31;;;;;;;33.00;25.40;;;;;;;1.80;100.00;98945.48;88539;276;136906;-73
2023/12/01 09:23:33;;;;;;;35.90;26.50;;;;;;;1.79;100.00;98950.73;87811;282;651770;-74
2023/12/01 09:25:35;;;;;;;35.90;27.40;;;;;;;1.79;100.00;98940.77;88268;279;138284;-70
2023/12/01 09:27:39;;;;;;;34.50;24.30;;;;;;;1.81;100.00;98942.61;88262;276;22860;-69